sensor_id;sensor_type;location;lat;lon;timestamp;temperature;humidity
23550;DHT22;11953;49.010;8.608;2023-04-01T00:02:33;10.80;99.90
23550;DHT22;11953;49.010;8.608;2023-04-01T00:05:21;10.80;99.90
23550;DHT22;11953;49.010;8.608;2023-04-01T00:08:09;10.80;99.90
23550;DHT22;11953;49.010;8.608;2023-04-01T00:10:56;10.80;99.90
23550;DHT22;11953;49.010;8.608;2023-04-01T00:13:43;10.80;99.90
23550;DHT22;11953;49.010;8.608;2023-04-01T00:16:30;10.70;99.90
23550;DHT22;11953;49.010;8.608;2023-04-01T00:19:18;10.70;99.90
23550;DHT22;11953;49.010;8.608;2023-04-01T00:22:05;10.70;99.90
23550;DHT22;11953;49.010;8.608;2023-04-01T00:24:52;10.70;99.90
23550;DHT22;11953;49.010;8.608;2023-04-01T00:27:39;10.70;99.90
23550;DHT22;11953;49.010;8.608;2023-04-01T00:30:25;10.70;99.90
23550;DHT22;11953;49.010;8.608;2023-04-01T00:33:12;10.70;99.90
23550;DHT22;11953;49.010;8.608;2023-04-01T00:36:07;10.80;99.90
23550;DHT22;11953;49.010;8.608;2023-04-01T00:38:55;10.70;99.90
23550;DHT22;11953;49.010;8.608;2023-04-01T00:41:44;10.70;99.90
23550;DHT22;11953;49.010;8.608;2023-04-01T00:44:32;10.70;99.90
23550;DHT22;11953;49.010;8.608;2023-04-01T00:47:20;10.70;99.90
23550;DHT22;11953;49.010;8.608;2023-04-01T00:50:08;10.70;99.90
23550;DHT22;11953;49.010;8.608;2023-04-01T00:52:57;10.70;99.90
23550;DHT22;11953;49.010;8.608;2023-04-01T00:55:50;10.70;99.90
23550;DHT22;11953;49.010;8.608;2023-04-01T00:58:39;10.70;99.90
23550;DHT22;11953;49.010;8.608;2023-04-01T01:01:28;10.70;99.90
23550;DHT22;11953;49.010;8.608;2023-04-01T01:04:24;10.70;99.90
23550;DHT22;11953;49.010;8.608;2023-04-01T01:07:20;10.70;99.90
23550;DHT22;11953;49.010;8.608;2023-04-01T01:10:16;10.70;99.90
23550;DHT22;11953;49.010;8.608;2023-04-01T01:13:08;10.70;99.90
23550;DHT22;11953;49.010;8.608;2023-04-01T01:15:58;10.60;99.90
23550;DHT22;11953;49.010;8.608;2023-04-01T01:18:49;10.70;99.90
23550;DHT22;11953;49.010;8.608;2023-04-01T01:21:50;10.70;99.90
23550;DHT22;11953;49.010;8.608;2023-04-01T01:24:55;10.70;99.90
23550;DHT22;11953;49.010;8.608;2023-04-01T01:27:49;10.70;99.90
23550;DHT22;11953;49.010;8.608;2023-04-01T01:30:43;10.70;99.90
23550;DHT22;11953;49.010;8.608;2023-04-01T01:33:49;10.70;99.90
23550;DHT22;11953;49.010;8.608;2023-04-01T01:36:40;10.70;99.90
23550;DHT22;11953;49.010;8.608;2023-04-01T01:39:32;10.70;99.90
23550;DHT22;11953;49.010;8.608;2023-04-01T01:42:20;10.60;99.90
23550;DHT22;11953;49.010;8.608;2023-04-01T01:45:11;10.60;99.90
23550;DHT22;11953;49.010;8.608;2023-04-01T01:48:01;10.60;99.90
23550;DHT22;11953;49.010;8.608;2023-04-01T01:50:50;10.60;99.90
23550;DHT22;11953;49.010;8.608;2023-04-01T01:53:38;10.60;99.90
23550;DHT22;11953;49.010;8.608;2023-04-01T01:56:27;10.60;99.90
23550;DHT22;11953;49.010;8.608;2023-04-01T01:59:17;10.60;99.90
23550;DHT22;11953;49.010;8.608;2023-04-01T02:02:06;10.60;99.90
23550;DHT22;11953;49.010;8.608;2023-04-01T02:04:55;10.60;99.90
23550;DHT22;11953;49.010;8.608;2023-04-01T02:07:43;10.60;99.90
23550;DHT22;11953;49.010;8.608;2023-04-01T02:10:35;10.50;99.90
23550;DHT22;11953;49.010;8.608;2023-04-01T02:13:27;10.60;99.90
23550;DHT22;11953;49.010;8.608;2023-04-01T02:16:20;10.50;99.90
23550;DHT22;11953;49.010;8.608;2023-04-01T02:19:08;10.50;99.90
23550;DHT22;11953;49.010;8.608;2023-04-01T02:21:59;10.40;99.90
23550;DHT22;11953;49.010;8.608;2023-04-01T02:24:48;10.40;99.90
23550;DHT22;11953;49.010;8.608;2023-04-01T02:27:37;10.50;99.90
23550;DHT22;11953;49.010;8.608;2023-04-01T02:30:26;10.50;99.90
23550;DHT22;11953;49.010;8.608;2023-04-01T02:33:13;10.50;99.90
23550;DHT22;11953;49.010;8.608;2023-04-01T02:36:00;10.50;99.90
23550;DHT22;11953;49.010;8.608;2023-04-01T02:38:48;10.50;99.90
23550;DHT22;11953;49.010;8.608;2023-04-01T02:41:39;10.50;99.90
23550;DHT22;11953;49.010;8.608;2023-04-01T02:44:27;10.50;99.90
23550;DHT22;11953;49.010;8.608;2023-04-01T02:47:14;10.50;99.90
23550;DHT22;11953;49.010;8.608;2023-04-01T02:50:01;10.60;99.90
23550;DHT22;11953;49.010;8.608;2023-04-01T02:52:47;10.60;99.90
23550;DHT22;11953;49.010;8.608;2023-04-01T02:55:34;10.50;99.90
23550;DHT22;11953;49.010;8.608;2023-04-01T02:58:21;10.50;99.90
23550;DHT22;11953;49.010;8.608;2023-04-01T03:01:09;10.50;99.90
23550;DHT22;11953;49.010;8.608;2023-04-01T03:03:56;10.50;99.90
23550;DHT22;11953;49.010;8.608;2023-04-01T03:06:42;10.50;99.90
23550;DHT22;11953;49.010;8.608;2023-04-01T03:09:29;10.50;99.90
23550;DHT22;11953;49.010;8.608;2023-04-01T03:12:16;10.50;99.90
23550;DHT22;11953;49.010;8.608;2023-04-01T03:15:10;10.40;99.90
23550;DHT22;11953;49.010;8.608;2023-04-01T03:17:59;10.40;99.90
23550;DHT22;11953;49.010;8.608;2023-04-01T03:20:46;10.40;99.90
23550;DHT22;11953;49.010;8.608;2023-04-01T03:23:33;10.40;99.90
23550;DHT22;11953;49.010;8.608;2023-04-01T03:26:19;10.40;99.90
23550;DHT22;11953;49.010;8.608;2023-04-01T03:29:07;10.40;99.90
23550;DHT22;11953;49.010;8.608;2023-04-01T03:31:53;10.30;99.90
23550;DHT22;11953;49.010;8.608;2023-04-01T03:34:44;10.30;99.90
23550;DHT22;11953;49.010;8.608;2023-04-01T03:37:31;10.30;99.90
23550;DHT22;11953;49.010;8.608;2023-04-01T03:40:18;10.30;99.90
23550;DHT22;11953;49.010;8.608;2023-04-01T03:43:05;10.30;99.90
23550;DHT22;11953;49.010;8.608;2023-04-01T03:45:55;10.30;99.90
23550;DHT22;11953;49.010;8.608;2023-04-01T03:48:43;10.30;99.90
23550;DHT22;11953;49.010;8.608;2023-04-01T03:51:31;10.40;99.90
23550;DHT22;11953;49.010;8.608;2023-04-01T03:54:18;10.40;99.90
23550;DHT22;11953;49.010;8.608;2023-04-01T03:57:05;10.40;99.90
23550;DHT22;11953;49.010;8.608;2023-04-01T03:59:52;10.40;99.90
23550;DHT22;11953;49.010;8.608;2023-04-01T04:02:39;10.40;99.90
23550;DHT22;11953;49.010;8.608;2023-04-01T04:05:28;10.40;99.90
23550;DHT22;11953;49.010;8.608;2023-04-01T04:08:16;10.40;99.90
23550;DHT22;11953;49.010;8.608;2023-04-01T04:11:03;10.40;99.90
23550;DHT22;11953;49.010;8.608;2023-04-01T04:13:51;10.40;99.90
23550;DHT22;11953;49.010;8.608;2023-04-01T04:16:39;10.40;99.90
23550;DHT22;11953;49.010;8.608;2023-04-01T04:19:26;10.40;99.90
23550;DHT22;11953;49.010;8.608;2023-04-01T04:22:12;10.40;99.90
23550;DHT22;11953;49.010;8.608;2023-04-01T04:25:00;10.40;99.90
23550;DHT22;11953;49.010;8.608;2023-04-01T04:27:48;10.40;99.90
23550;DHT22;11953;49.010;8.608;2023-04-01T04:30:35;10.40;99.90
23550;DHT22;11953;49.010;8.608;2023-04-01T04:33:22;10.40;99.90
23550;DHT22;11953;49.010;8.608;2023-04-01T04:36:09;10.50;99.90
23550;DHT22;11953;49.010;8.608;2023-04-01T04:38:56;10.50;99.90
23550;DHT22;11953;49.010;8.608;2023-04-01T04:41:48;10.50;99.90
23550;DHT22;11953;49.010;8.608;2023-04-01T04:44:35;10.50;99.90
23550;DHT22;11953;49.010;8.608;2023-04-01T04:47:22;10.50;99.90
23550;DHT22;11953;49.010;8.608;2023-04-01T04:50:09;10.50;99.90
23550;DHT22;11953;49.010;8.608;2023-04-01T04:52:58;10.50;99.90
23550;DHT22;11953;49.010;8.608;2023-04-01T04:55:46;10.60;99.90
23550;DHT22;11953;49.010;8.608;2023-04-01T04:58:49;10.50;99.90
23550;DHT22;11953;49.010;8.608;2023-04-01T05:01:41;10.50;99.90
23550;DHT22;11953;49.010;8.608;2023-04-01T05:04:28;10.50;99.90
23550;DHT22;11953;49.010;8.608;2023-04-01T05:07:15;10.50;99.90
23550;DHT22;11953;49.010;8.608;2023-04-01T05:10:02;10.50;99.90
23550;DHT22;11953;49.010;8.608;2023-04-01T05:12:49;10.60;99.90
23550;DHT22;11953;49.010;8.608;2023-04-01T05:15:40;10.60;99.90
23550;DHT22;11953;49.010;8.608;2023-04-01T05:18:27;10.60;99.90
23550;DHT22;11953;49.010;8.608;2023-04-01T05:21:14;10.50;99.90
23550;DHT22;11953;49.010;8.608;2023-04-01T05:24:01;10.50;99.90
23550;DHT22;11953;49.010;8.608;2023-04-01T05:26:49;10.60;99.90
23550;DHT22;11953;49.010;8.608;2023-04-01T05:29:36;10.60;99.90
23550;DHT22;11953;49.010;8.608;2023-04-01T05:32:27;10.60;99.90
23550;DHT22;11953;49.010;8.608;2023-04-01T05:35:14;10.60;99.90
23550;DHT22;11953;49.010;8.608;2023-04-01T05:38:01;10.60;99.90
23550;DHT22;11953;49.010;8.608;2023-04-01T05:40:48;10.60;99.90
23550;DHT22;11953;49.010;8.608;2023-04-01T05:43:36;10.60;99.90
23550;DHT22;11953;49.010;8.608;2023-04-01T05:46:42;10.50;99.90
23550;DHT22;11953;49.010;8.608;2023-04-01T05:49:37;10.50;99.90
23550;DHT22;11953;49.010;8.608;2023-04-01T05:52:24;10.50;99.90
23550;DHT22;11953;49.010;8.608;2023-04-01T05:55:11;10.50;99.90
23550;DHT22;11953;49.010;8.608;2023-04-01T05:57:58;10.50;99.90
23550;DHT22;11953;49.010;8.608;2023-04-01T06:00:47;10.50;99.90
23550;DHT22;11953;49.010;8.608;2023-04-01T06:03:50;10.40;99.90
23550;DHT22;11953;49.010;8.608;2023-04-01T06:06:39;10.40;99.90
23550;DHT22;11953;49.010;8.608;2023-04-01T06:09:30;10.40;99.90
23550;DHT22;11953;49.010;8.608;2023-04-01T06:12:26;10.30;99.90
23550;DHT22;11953;49.010;8.608;2023-04-01T06:15:23;10.30;99.90
23550;DHT22;11953;49.010;8.608;2023-04-01T06:21:57;10.20;99.90
23550;DHT22;11953;49.010;8.608;2023-04-01T06:24:59;10.20;99.90
23550;DHT22;11953;49.010;8.608;2023-04-01T06:31:31;10.10;99.90
23550;DHT22;11953;49.010;8.608;2023-04-01T06:34:33;10.20;99.90
23550;DHT22;11953;49.010;8.608;2023-04-01T06:37:52;10.10;99.90
23550;DHT22;11953;49.010;8.608;2023-04-01T06:41:09;10.10;99.90
23550;DHT22;11953;49.010;8.608;2023-04-01T06:44:13;10.10;99.90
23550;DHT22;11953;49.010;8.608;2023-04-01T06:47:42;10.10;99.90
23550;DHT22;11953;49.010;8.608;2023-04-01T06:50:54;10.10;99.90
23550;DHT22;11953;49.010;8.608;2023-04-01T06:54:11;10.20;99.90
23550;DHT22;11953;49.010;8.608;2023-04-01T06:57:23;10.10;99.90
23550;DHT22;11953;49.010;8.608;2023-04-01T07:00:14;10.10;99.90
23550;DHT22;11953;49.010;8.608;2023-04-01T07:03:12;10.10;99.90
23550;DHT22;11953;49.010;8.608;2023-04-01T07:06:03;10.30;99.90
23550;DHT22;11953;49.010;8.608;2023-04-01T07:08:58;10.30;99.90
23550;DHT22;11953;49.010;8.608;2023-04-01T07:12:17;10.20;99.90
23550;DHT22;11953;49.010;8.608;2023-04-01T07:15:51;10.20;99.90
23550;DHT22;11953;49.010;8.608;2023-04-01T07:18:45;10.30;99.90
23550;DHT22;11953;49.010;8.608;2023-04-01T07:21:39;10.30;99.90
23550;DHT22;11953;49.010;8.608;2023-04-01T07:24:38;10.30;99.90
23550;DHT22;11953;49.010;8.608;2023-04-01T07:27:28;10.30;99.90
23550;DHT22;11953;49.010;8.608;2023-04-01T07:30:17;10.30;99.90
23550;DHT22;11953;49.010;8.608;2023-04-01T07:33:06;10.30;99.90
23550;DHT22;11953;49.010;8.608;2023-04-01T07:35:58;10.30;99.90
23550;DHT22;11953;49.010;8.608;2023-04-01T07:38:57;10.20;99.90
23550;DHT22;11953;49.010;8.608;2023-04-01T07:42:16;10.10;99.90
23550;DHT22;11953;49.010;8.608;2023-04-01T07:45:16;10.10;99.90
23550;DHT22;11953;49.010;8.608;2023-04-01T07:48:13;10.10;99.90
23550;DHT22;11953;49.010;8.608;2023-04-01T07:51:05;10.20;99.90
23550;DHT22;11953;49.010;8.608;2023-04-01T07:54:03;10.20;99.90
23550;DHT22;11953;49.010;8.608;2023-04-01T07:56:59;10.20;99.90
23550;DHT22;11953;49.010;8.608;2023-04-01T08:00:09;10.10;99.90
23550;DHT22;11953;49.010;8.608;2023-04-01T08:03:38;10.00;99.90
23550;DHT22;11953;49.010;8.608;2023-04-01T08:06:33;9.90;99.90
23550;DHT22;11953;49.010;8.608;2023-04-01T08:09:30;9.80;99.90
23550;DHT22;11953;49.010;8.608;2023-04-01T08:12:45;9.70;99.90
23550;DHT22;11953;49.010;8.608;2023-04-01T08:16:04;9.80;99.90
23550;DHT22;11953;49.010;8.608;2023-04-01T08:19:09;9.70;99.90
23550;DHT22;11953;49.010;8.608;2023-04-01T08:22:04;9.70;99.90
23550;DHT22;11953;49.010;8.608;2023-04-01T08:24:58;9.70;99.90
23550;DHT22;11953;49.010;8.608;2023-04-01T08:27:52;9.70;99.90
23550;DHT22;11953;49.010;8.608;2023-04-01T08:30:42;9.90;99.90
23550;DHT22;11953;49.010;8.608;2023-04-01T08:33:32;10.00;99.90
23550;DHT22;11953;49.010;8.608;2023-04-01T08:36:27;10.10;99.90
23550;DHT22;11953;49.010;8.608;2023-04-01T08:39:31;10.30;99.90
23550;DHT22;11953;49.010;8.608;2023-04-01T08:42:36;10.40;99.90
23550;DHT22;11953;49.010;8.608;2023-04-01T08:49:01;10.70;99.90
23550;DHT22;11953;49.010;8.608;2023-04-01T08:52:23;10.70;99.90
23550;DHT22;11953;49.010;8.608;2023-04-01T08:55:31;11.00;99.90
23550;DHT22;11953;49.010;8.608;2023-04-01T09:02:12;11.50;99.90
23550;DHT22;11953;49.010;8.608;2023-04-01T09:05:32;11.30;99.90
23550;DHT22;11953;49.010;8.608;2023-04-01T09:08:35;11.60;99.90
23550;DHT22;11953;49.010;8.608;2023-04-01T09:11:40;11.70;99.90
23550;DHT22;11953;49.010;8.608;2023-04-01T09:15:07;11.80;99.90
23550;DHT22;11953;49.010;8.608;2023-04-01T09:18:13;12.10;99.90
23550;DHT22;11953;49.010;8.608;2023-04-01T09:21:24;11.90;99.90
23550;DHT22;11953;49.010;8.608;2023-04-01T09:28:02;11.60;99.90
23550;DHT22;11953;49.010;8.608;2023-04-01T09:31:15;11.50;99.90
23550;DHT22;11953;49.010;8.608;2023-04-01T09:34:51;11.40;99.90
23550;DHT22;11953;49.010;8.608;2023-04-01T09:37:52;11.30;99.90
23550;DHT22;11953;49.010;8.608;2023-04-01T09:40:48;11.50;99.90
23550;DHT22;11953;49.010;8.608;2023-04-01T09:44:00;11.30;99.90
23550;DHT22;11953;49.010;8.608;2023-04-01T09:47:03;11.10;99.90
23550;DHT22;11953;49.010;8.608;2023-04-01T09:53:30;11.10;99.90
23550;DHT22;11953;49.010;8.608;2023-04-01T09:56:46;11.10;99.90
23550;DHT22;11953;49.010;8.608;2023-04-01T10:00:13;11.20;99.90
23550;DHT22;11953;49.010;8.608;2023-04-01T10:13:48;11.50;99.90
23550;DHT22;11953;49.010;8.608;2023-04-01T10:17:05;11.40;99.90
23550;DHT22;11953;49.010;8.608;2023-04-01T10:20:19;11.50;99.90
23550;DHT22;11953;49.010;8.608;2023-04-01T10:23:46;11.30;99.90
23550;DHT22;11953;49.010;8.608;2023-04-01T10:27:02;11.40;99.90
23550;DHT22;11953;49.010;8.608;2023-04-01T10:33:57;11.50;99.90
23550;DHT22;11953;49.010;8.608;2023-04-01T10:36:52;11.60;99.90
23550;DHT22;11953;49.010;8.608;2023-04-01T10:40:20;11.40;99.90
23550;DHT22;11953;49.010;8.608;2023-04-01T10:44:06;11.30;99.90
23550;DHT22;11953;49.010;8.608;2023-04-01T10:47:26;11.50;99.90
23550;DHT22;11953;49.010;8.608;2023-04-01T10:54:18;11.50;99.90
23550;DHT22;11953;49.010;8.608;2023-04-01T10:57:44;11.40;99.90
23550;DHT22;11953;49.010;8.608;2023-04-01T11:01:14;11.40;99.90
23550;DHT22;11953;49.010;8.608;2023-04-01T11:12:21;11.50;99.90
23550;DHT22;11953;49.010;8.608;2023-04-01T11:15:44;11.50;99.90
23550;DHT22;11953;49.010;8.608;2023-04-01T11:19:14;11.40;99.90
23550;DHT22;11953;49.010;8.608;2023-04-01T11:22:41;11.60;99.90
23550;DHT22;11953;49.010;8.608;2023-04-01T11:25:57;11.70;99.90
23550;DHT22;11953;49.010;8.608;2023-04-01T11:29:25;11.70;99.90
23550;DHT22;11953;49.010;8.608;2023-04-01T11:32:46;11.60;99.90
23550;DHT22;11953;49.010;8.608;2023-04-01T11:35:47;11.50;99.90
23550;DHT22;11953;49.010;8.608;2023-04-01T11:38:58;11.50;99.90
23550;DHT22;11953;49.010;8.608;2023-04-01T11:42:17;11.50;99.90
23550;DHT22;11953;49.010;8.608;2023-04-01T11:45:35;11.50;99.90
23550;DHT22;11953;49.010;8.608;2023-04-01T11:48:37;11.50;99.90
23550;DHT22;11953;49.010;8.608;2023-04-01T11:51:59;11.40;99.90
23550;DHT22;11953;49.010;8.608;2023-04-01T11:55:08;11.40;99.90
23550;DHT22;11953;49.010;8.608;2023-04-01T11:58:15;11.30;99.90
23550;DHT22;11953;49.010;8.608;2023-04-01T12:01:26;11.40;99.90
23550;DHT22;11953;49.010;8.608;2023-04-01T12:04:49;11.30;99.90
23550;DHT22;11953;49.010;8.608;2023-04-01T12:10:47;11.30;99.90
23550;DHT22;11953;49.010;8.608;2023-04-01T12:13:42;11.30;99.90
23550;DHT22;11953;49.010;8.608;2023-04-01T12:16:51;11.40;99.90
23550;DHT22;11953;49.010;8.608;2023-04-01T12:19:46;11.40;99.90
23550;DHT22;11953;49.010;8.608;2023-04-01T12:22:38;11.30;99.90
23550;DHT22;11953;49.010;8.608;2023-04-01T12:25:45;11.30;99.90
23550;DHT22;11953;49.010;8.608;2023-04-01T12:28:46;11.40;99.90
23550;DHT22;11953;49.010;8.608;2023-04-01T12:31:45;11.20;99.90
23550;DHT22;11953;49.010;8.608;2023-04-01T12:34:53;11.10;99.90
23550;DHT22;11953;49.010;8.608;2023-04-01T12:37:51;11.00;99.90
23550;DHT22;11953;49.010;8.608;2023-04-01T12:40:51;11.00;99.90
23550;DHT22;11953;49.010;8.608;2023-04-01T12:44:02;11.00;99.90
23550;DHT22;11953;49.010;8.608;2023-04-01T12:47:10;11.00;99.90
23550;DHT22;11953;49.010;8.608;2023-04-01T12:53:33;10.70;99.90
23550;DHT22;11953;49.010;8.608;2023-04-01T12:56:32;10.60;99.90
23550;DHT22;11953;49.010;8.608;2023-04-01T12:59:45;10.70;99.90
23550;DHT22;11953;49.010;8.608;2023-04-01T13:02:46;10.80;99.90
23550;DHT22;11953;49.010;8.608;2023-04-01T13:09:10;10.90;99.90
23550;DHT22;11953;49.010;8.608;2023-04-01T13:12:16;10.90;99.90
23550;DHT22;11953;49.010;8.608;2023-04-01T13:15:23;10.90;99.90
23550;DHT22;11953;49.010;8.608;2023-04-01T13:18:26;10.70;99.90
23550;DHT22;11953;49.010;8.608;2023-04-01T13:21:19;10.70;99.90
23550;DHT22;11953;49.010;8.608;2023-04-01T13:24:17;10.70;99.90
23550;DHT22;11953;49.010;8.608;2023-04-01T13:27:09;10.70;99.90
23550;DHT22;11953;49.010;8.608;2023-04-01T13:30:07;10.60;99.90
23550;DHT22;11953;49.010;8.608;2023-04-01T13:33:04;10.70;99.90
23550;DHT22;11953;49.010;8.608;2023-04-01T13:36:02;10.70;99.90
23550;DHT22;11953;49.010;8.608;2023-04-01T13:39:15;10.70;99.90
23550;DHT22;11953;49.010;8.608;2023-04-01T13:42:14;10.80;99.90
23550;DHT22;11953;49.010;8.608;2023-04-01T13:45:12;10.90;99.90
23550;DHT22;11953;49.010;8.608;2023-04-01T13:48:25;10.90;99.90
23550;DHT22;11953;49.010;8.608;2023-04-01T13:51:29;10.80;99.90
23550;DHT22;11953;49.010;8.608;2023-04-01T13:54:50;10.80;99.90
23550;DHT22;11953;49.010;8.608;2023-04-01T13:57:57;10.80;99.90
23550;DHT22;11953;49.010;8.608;2023-04-01T14:00:54;10.90;99.90
23550;DHT22;11953;49.010;8.608;2023-04-01T14:04:10;10.70;99.90
23550;DHT22;11953;49.010;8.608;2023-04-01T14:07:16;10.80;99.90
23550;DHT22;11953;49.010;8.608;2023-04-01T14:10:11;10.80;99.90
23550;DHT22;11953;49.010;8.608;2023-04-01T14:13:05;10.90;99.90
23550;DHT22;11953;49.010;8.608;2023-04-01T14:16:06;11.00;99.90
23550;DHT22;11953;49.010;8.608;2023-04-01T14:19:08;11.10;99.90
23550;DHT22;11953;49.010;8.608;2023-04-01T14:22:05;11.10;99.90
23550;DHT22;11953;49.010;8.608;2023-04-01T14:28:21;11.20;99.90
23550;DHT22;11953;49.010;8.608;2023-04-01T14:31:23;11.20;99.90
23550;DHT22;11953;49.010;8.608;2023-04-01T14:34:26;11.20;99.90
23550;DHT22;11953;49.010;8.608;2023-04-01T14:37:29;11.20;99.90
23550;DHT22;11953;49.010;8.608;2023-04-01T14:40:44;11.30;99.90
23550;DHT22;11953;49.010;8.608;2023-04-01T14:43:51;11.30;99.90
23550;DHT22;11953;49.010;8.608;2023-04-01T14:47:11;11.40;99.90
23550;DHT22;11953;49.010;8.608;2023-04-01T14:50:08;11.50;99.90
23550;DHT22;11953;49.010;8.608;2023-04-01T14:52:59;11.20;99.90
23550;DHT22;11953;49.010;8.608;2023-04-01T14:55:50;11.10;99.90
23550;DHT22;11953;49.010;8.608;2023-04-01T14:58:43;11.20;99.90
23550;DHT22;11953;49.010;8.608;2023-04-01T15:01:37;11.20;99.90
23550;DHT22;11953;49.010;8.608;2023-04-01T15:04:41;11.00;99.90
23550;DHT22;11953;49.010;8.608;2023-04-01T15:14:31;11.10;99.90
23550;DHT22;11953;49.010;8.608;2023-04-01T15:17:35;11.20;99.90
23550;DHT22;11953;49.010;8.608;2023-04-01T15:20:55;11.30;99.90
23550;DHT22;11953;49.010;8.608;2023-04-01T15:24:06;11.20;99.90
23550;DHT22;11953;49.010;8.608;2023-04-01T15:27:06;11.10;99.90
23550;DHT22;11953;49.010;8.608;2023-04-01T15:30:16;11.20;99.90
23550;DHT22;11953;49.010;8.608;2023-04-01T15:33:34;11.20;99.90
23550;DHT22;11953;49.010;8.608;2023-04-01T15:36:33;11.30;99.90
23550;DHT22;11953;49.010;8.608;2023-04-01T15:39:34;11.20;99.90
23550;DHT22;11953;49.010;8.608;2023-04-01T15:42:35;11.30;99.90
23550;DHT22;11953;49.010;8.608;2023-04-01T15:45:37;11.30;99.90
23550;DHT22;11953;49.010;8.608;2023-04-01T15:48:39;11.30;99.90
23550;DHT22;11953;49.010;8.608;2023-04-01T15:51:41;11.40;99.90
23550;DHT22;11953;49.010;8.608;2023-04-01T15:54:50;11.30;99.90
23550;DHT22;11953;49.010;8.608;2023-04-01T15:57:47;11.30;99.90
23550;DHT22;11953;49.010;8.608;2023-04-01T16:00:46;11.30;99.90
23550;DHT22;11953;49.010;8.608;2023-04-01T16:03:40;11.30;99.90
23550;DHT22;11953;49.010;8.608;2023-04-01T16:06:50;11.10;99.90
23550;DHT22;11953;49.010;8.608;2023-04-01T16:10:12;11.20;99.90
23550;DHT22;11953;49.010;8.608;2023-04-01T16:13:17;11.20;99.90
23550;DHT22;11953;49.010;8.608;2023-04-01T16:16:11;11.10;99.90
23550;DHT22;11953;49.010;8.608;2023-04-01T16:22:16;11.10;99.90
23550;DHT22;11953;49.010;8.608;2023-04-01T16:25:20;11.10;99.90
23550;DHT22;11953;49.010;8.608;2023-04-01T16:28:19;11.20;99.90
23550;DHT22;11953;49.010;8.608;2023-04-01T16:31:10;11.20;99.90
23550;DHT22;11953;49.010;8.608;2023-04-01T16:34:02;11.20;99.90
23550;DHT22;11953;49.010;8.608;2023-04-01T16:36:54;11.20;99.90
23550;DHT22;11953;49.010;8.608;2023-04-01T16:39:49;11.30;99.90
23550;DHT22;11953;49.010;8.608;2023-04-01T16:42:44;11.30;99.90
23550;DHT22;11953;49.010;8.608;2023-04-01T16:45:37;11.40;99.90
23550;DHT22;11953;49.010;8.608;2023-04-01T16:48:29;11.40;99.90
23550;DHT22;11953;49.010;8.608;2023-04-01T16:51:20;11.40;99.90
23550;DHT22;11953;49.010;8.608;2023-04-01T16:54:14;11.40;99.90
23550;DHT22;11953;49.010;8.608;2023-04-01T16:57:11;11.40;99.90
23550;DHT22;11953;49.010;8.608;2023-04-01T17:00:16;11.40;99.90
23550;DHT22;11953;49.010;8.608;2023-04-01T17:03:11;11.30;99.90
23550;DHT22;11953;49.010;8.608;2023-04-01T17:06:11;11.20;99.90
23550;DHT22;11953;49.010;8.608;2023-04-01T17:09:14;11.10;99.90
23550;DHT22;11953;49.010;8.608;2023-04-01T17:12:11;11.00;99.90
23550;DHT22;11953;49.010;8.608;2023-04-01T17:15:05;11.00;99.90
23550;DHT22;11953;49.010;8.608;2023-04-01T17:17:58;10.90;99.90
23550;DHT22;11953;49.010;8.608;2023-04-01T17:20:50;10.80;99.90
23550;DHT22;11953;49.010;8.608;2023-04-01T17:23:45;10.70;99.90
23550;DHT22;11953;49.010;8.608;2023-04-01T17:26:37;10.60;99.90
23550;DHT22;11953;49.010;8.608;2023-04-01T17:29:31;10.60;99.90
23550;DHT22;11953;49.010;8.608;2023-04-01T17:32:23;10.60;99.90
23550;DHT22;11953;49.010;8.608;2023-04-01T17:35:16;10.50;99.90
23550;DHT22;11953;49.010;8.608;2023-04-01T17:38:17;10.60;99.90
23550;DHT22;11953;49.010;8.608;2023-04-01T17:41:10;10.60;99.90
23550;DHT22;11953;49.010;8.608;2023-04-01T17:44:13;10.60;99.90
23550;DHT22;11953;49.010;8.608;2023-04-01T17:47:18;10.70;99.90
23550;DHT22;11953;49.010;8.608;2023-04-01T17:50:30;10.70;99.90
23550;DHT22;11953;49.010;8.608;2023-04-01T17:53:33;10.60;99.90
23550;DHT22;11953;49.010;8.608;2023-04-01T17:56:32;10.60;99.90
23550;DHT22;11953;49.010;8.608;2023-04-01T17:59:28;10.60;99.90
23550;DHT22;11953;49.010;8.608;2023-04-01T18:02:26;10.60;99.90
23550;DHT22;11953;49.010;8.608;2023-04-01T18:05:31;10.60;99.90
23550;DHT22;11953;49.010;8.608;2023-04-01T18:08:42;10.60;99.90
23550;DHT22;11953;49.010;8.608;2023-04-01T18:11:44;10.60;99.90
23550;DHT22;11953;49.010;8.608;2023-04-01T18:14:49;10.60;99.90
23550;DHT22;11953;49.010;8.608;2023-04-01T18:17:47;10.70;99.90
23550;DHT22;11953;49.010;8.608;2023-04-01T18:20:46;10.60;99.90
23550;DHT22;11953;49.010;8.608;2023-04-01T18:23:43;10.60;99.90
23550;DHT22;11953;49.010;8.608;2023-04-01T18:26:47;10.40;99.90
23550;DHT22;11953;49.010;8.608;2023-04-01T18:29:40;10.40;99.90
23550;DHT22;11953;49.010;8.608;2023-04-01T18:32:32;10.40;99.90
23550;DHT22;11953;49.010;8.608;2023-04-01T18:35:29;10.30;99.90
23550;DHT22;11953;49.010;8.608;2023-04-01T18:38:25;10.30;99.90
23550;DHT22;11953;49.010;8.608;2023-04-01T18:41:16;10.30;99.90
23550;DHT22;11953;49.010;8.608;2023-04-01T18:44:26;10.30;99.90
23550;DHT22;11953;49.010;8.608;2023-04-01T18:47:21;10.30;99.90
23550;DHT22;11953;49.010;8.608;2023-04-01T18:50:19;10.30;99.90
23550;DHT22;11953;49.010;8.608;2023-04-01T18:53:15;10.30;99.90
23550;DHT22;11953;49.010;8.608;2023-04-01T18:56:06;10.30;99.90
23550;DHT22;11953;49.010;8.608;2023-04-01T18:59:00;10.40;99.90
23550;DHT22;11953;49.010;8.608;2023-04-01T19:01:59;10.30;99.90
23550;DHT22;11953;49.010;8.608;2023-04-01T19:04:52;10.40;99.90
23550;DHT22;11953;49.010;8.608;2023-04-01T19:07:46;10.30;99.90
23550;DHT22;11953;49.010;8.608;2023-04-01T19:10:40;10.40;99.90
23550;DHT22;11953;49.010;8.608;2023-04-01T19:13:42;10.40;99.90
23550;DHT22;11953;49.010;8.608;2023-04-01T19:16:42;10.40;99.90
23550;DHT22;11953;49.010;8.608;2023-04-01T19:19:48;10.50;99.90
23550;DHT22;11953;49.010;8.608;2023-04-01T19:22:46;10.50;99.90
23550;DHT22;11953;49.010;8.608;2023-04-01T19:25:37;10.60;99.90
23550;DHT22;11953;49.010;8.608;2023-04-01T19:28:37;10.50;99.90
23550;DHT22;11953;49.010;8.608;2023-04-01T19:31:51;10.50;99.90
23550;DHT22;11953;49.010;8.608;2023-04-01T19:34:49;10.60;99.90
23550;DHT22;11953;49.010;8.608;2023-04-01T19:37:40;10.60;99.90
23550;DHT22;11953;49.010;8.608;2023-04-01T19:40:41;10.50;99.90
23550;DHT22;11953;49.010;8.608;2023-04-01T19:43:47;10.50;99.90
23550;DHT22;11953;49.010;8.608;2023-04-01T19:46:39;10.50;99.90
23550;DHT22;11953;49.010;8.608;2023-04-01T19:49:42;10.50;99.90
23550;DHT22;11953;49.010;8.608;2023-04-01T19:52:32;10.40;99.90
23550;DHT22;11953;49.010;8.608;2023-04-01T19:55:26;10.40;99.90
23550;DHT22;11953;49.010;8.608;2023-04-01T19:58:24;10.50;99.90